sensor_id;sensor_type;location;lat;lon;timestamp;pressure;altitude;pressure_sealevel;temperature;humidity
34921;BME280;21128;50.016;20.002;2023-03-14T00:01:10;97439.84;;;12.50;47.30
34921;BME280;21128;50.016;20.002;2023-03-14T00:03:37;97432.75;;;12.50;46.98
34921;BME280;21128;50.016;20.002;2023-03-14T00:06:05;97438.02;;;12.50;47.79
34921;BME280;21128;50.016;20.002;2023-03-14T00:08:33;97436.39;;;12.49;47.52
34921;BME280;21128;50.016;20.002;2023-03-14T00:11:09;97432.94;;;12.49;47.65
34921;BME280;21128;50.016;20.002;2023-03-14T00:13:36;97430.11;;;12.50;47.58
34921;BME280;21128;50.016;20.002;2023-03-14T00:16:08;97423.67;;;12.53;46.50
34921;BME280;21128;50.016;20.002;2023-03-14T00:18:36;97436.88;;;12.59;47.07
34921;BME280;21128;50.016;20.002;2023-03-14T00:21:05;97431.25;;;12.62;47.38
34921;BME280;21128;50.016;20.002;2023-03-14T00:23:35;97428.42;;;12.64;47.19
34921;BME280;21128;50.016;20.002;2023-03-14T00:26:05;97420.52;;;12.64;47.25
34921;BME280;21128;50.016;20.002;2023-03-14T00:28:32;97427.80;;;12.62;47.01
34921;BME280;21128;50.016;20.002;2023-03-14T00:31:05;97427.97;;;12.60;47.35
34921;BME280;21128;50.016;20.002;2023-03-14T00:33:32;97416.00;;;12.58;46.59
34921;BME280;21128;50.016;20.002;2023-03-14T00:36:02;97408.29;;;12.56;46.42
34921;BME280;21128;50.016;20.002;2023-03-14T00:38:30;97408.29;;;12.56;46.80
34921;BME280;21128;50.016;20.002;2023-03-14T00:40:58;97406.27;;;12.58;46.65
34921;BME280;21128;50.016;20.002;2023-03-14T00:43:25;97390.46;;;12.58;46.33
34921;BME280;21128;50.016;20.002;2023-03-14T00:45:52;97387.20;;;12.56;46.67
34921;BME280;21128;50.016;20.002;2023-03-14T00:48:20;97382.33;;;12.53;46.94
34921;BME280;21128;50.016;20.002;2023-03-14T00:50:47;97374.78;;;12.50;46.71
34921;BME280;21128;50.016;20.002;2023-03-14T00:53:15;97382.45;;;12.45;47.34
34921;BME280;21128;50.016;20.002;2023-03-14T00:55:43;97375.92;;;12.41;47.16
34921;BME280;21128;50.016;20.002;2023-03-14T00:58:12;97370.42;;;12.36;46.80
34921;BME280;21128;50.016;20.002;2023-03-14T01:00:40;97360.25;;;12.33;47.20
34921;BME280;21128;50.016;20.002;2023-03-14T01:03:09;97350.10;;;12.30;47.27
34921;BME280;21128;50.016;20.002;2023-03-14T01:05:39;97346.59;;;12.23;47.31
34921;BME280;21128;50.016;20.002;2023-03-14T01:08:06;97336.61;;;12.18;47.42
34921;BME280;21128;50.016;20.002;2023-03-14T01:10:37;97331.11;;;12.13;48.03
34921;BME280;21128;50.016;20.002;2023-03-14T01:13:04;97319.95;;;12.11;48.13
34921;BME280;21128;50.016;20.002;2023-03-14T01:15:33;97302.89;;;12.07;47.45
34921;BME280;21128;50.016;20.002;2023-03-14T01:18:00;97295.58;;;12.02;47.53
34921;BME280;21128;50.016;20.002;2023-03-14T01:20:27;97289.05;;;11.98;47.88
34921;BME280;21128;50.016;20.002;2023-03-14T01:22:54;97278.91;;;11.95;47.57
34921;BME280;21128;50.016;20.002;2023-03-14T01:25:21;97274.81;;;11.93;47.91
34921;BME280;21128;50.016;20.002;2023-03-14T01:27:48;97274.00;;;11.92;48.34
34921;BME280;21128;50.016;20.002;2023-03-14T01:30:15;97273.19;;;11.92;48.14
34921;BME280;21128;50.016;20.002;2023-03-14T01:32:42;97266.09;;;11.92;47.95
34921;BME280;21128;50.016;20.002;2023-03-14T01:35:09;97263.66;;;11.91;48.19
34921;BME280;21128;50.016;20.002;2023-03-14T01:37:36;97262.23;;;11.88;48.31
34921;BME280;21128;50.016;20.002;2023-03-14T01:40:04;97258.17;;;11.86;48.64
34921;BME280;21128;50.016;20.002;2023-03-14T01:42:32;97262.16;;;11.81;48.99
34921;BME280;21128;50.016;20.002;2023-03-14T01:45:01;97252.16;;;11.77;48.34
34921;BME280;21128;50.016;20.002;2023-03-14T01:47:28;97275.80;;;11.70;48.95
34921;BME280;21128;50.016;20.002;2023-03-14T01:50:06;97270.66;;;11.62;49.33
34921;BME280;21128;50.016;20.002;2023-03-14T01:52:35;97276.84;;;11.54;49.20
34921;BME280;21128;50.016;20.002;2023-03-14T01:55:06;97255.91;;;11.46;49.31
34921;BME280;21128;50.016;20.002;2023-03-14T01:57:52;97248.33;;;11.37;49.47
34921;BME280;21128;50.016;20.002;2023-03-14T02:00:22;97238.92;;;11.27;49.42
34921;BME280;21128;50.016;20.002;2023-03-14T02:03:05;97240.47;;;11.22;50.06
34921;BME280;21128;50.016;20.002;2023-03-14T02:05:33;97232.30;;;11.17;49.95
34921;BME280;21128;50.016;20.002;2023-03-14T02:08:03;97228.63;;;11.11;50.43
34921;BME280;21128;50.016;20.002;2023-03-14T02:10:37;97216.64;;;11.09;50.65
34921;BME280;21128;50.016;20.002;2023-03-14T02:13:07;97216.02;;;11.07;50.37
34921;BME280;21128;50.016;20.002;2023-03-14T02:15:34;97210.77;;;11.07;50.65
34921;BME280;21128;50.016;20.002;2023-03-14T02:18:02;97194.17;;;11.06;50.61
34921;BME280;21128;50.016;20.002;2023-03-14T02:23:08;97191.55;;;11.06;50.79
34921;BME280;21128;50.016;20.002;2023-03-14T02:26:01;97187.30;;;11.05;51.30
34921;BME280;21128;50.016;20.002;2023-03-14T02:28:32;97179.80;;;11.02;51.32
34921;BME280;21128;50.016;20.002;2023-03-14T02:30:59;97170.02;;;10.96;51.17
34921;BME280;21128;50.016;20.002;2023-03-14T02:33:26;97162.48;;;10.93;52.05
34921;BME280;21128;50.016;20.002;2023-03-14T02:36:03;97159.50;;;10.96;51.37
34921;BME280;21128;50.016;20.002;2023-03-14T02:39:14;97154.48;;;11.01;51.69
34921;BME280;21128;50.016;20.002;2023-03-14T02:41:33;97128.20;;;11.01;51.66
34921;BME280;21128;50.016;20.002;2023-03-14T02:44:01;97124.59;;;11.02;51.61
34921;BME280;21128;50.016;20.002;2023-03-14T02:46:30;97130.09;;;11.07;51.64
34921;BME280;21128;50.016;20.002;2023-03-14T02:51:27;97136.30;;;11.21;51.76
34921;BME280;21128;50.016;20.002;2023-03-14T02:53:55;97133.30;;;11.24;51.45
34921;BME280;21128;50.016;20.002;2023-03-14T02:56:23;97127.30;;;11.30;51.58
34921;BME280;21128;50.016;20.002;2023-03-14T02:58:50;97131.81;;;11.36;51.36
34921;BME280;21128;50.016;20.002;2023-03-14T03:01:17;97128.79;;;11.39;51.55
34921;BME280;21128;50.016;20.002;2023-03-14T03:03:44;97131.03;;;11.42;51.42
34921;BME280;21128;50.016;20.002;2023-03-14T03:06:11;97120.34;;;11.44;51.83
34921;BME280;21128;50.016;20.002;2023-03-14T03:08:38;97107.36;;;11.42;51.50
34921;BME280;21128;50.016;20.002;2023-03-14T03:11:05;97105.37;;;11.44;51.05
34921;BME280;21128;50.016;20.002;2023-03-14T03:13:33;97108.43;;;11.48;51.48
34921;BME280;21128;50.016;20.002;2023-03-14T03:16:00;97111.87;;;11.48;51.04
34921;BME280;21128;50.016;20.002;2023-03-14T03:18:27;97110.87;;;11.49;51.06
34921;BME280;21128;50.016;20.002;2023-03-14T03:20:54;97117.33;;;11.47;51.14
34921;BME280;21128;50.016;20.002;2023-03-14T03:23:21;97105.19;;;11.46;51.59
34921;BME280;21128;50.016;20.002;2023-03-14T03:25:49;97106.13;;;11.38;51.26
34921;BME280;21128;50.016;20.002;2023-03-14T03:28:17;97093.86;;;11.24;51.53
34921;BME280;21128;50.016;20.002;2023-03-14T03:30:45;97094.03;;;11.01;51.52
34921;BME280;21128;50.016;20.002;2023-03-14T03:33:12;97090.41;;;10.81;51.90
34921;BME280;21128;50.016;20.002;2023-03-14T03:35:49;97093.06;;;10.66;52.12
34921;BME280;21128;50.016;20.002;2023-03-14T03:38:17;97092.65;;;10.48;52.08
34921;BME280;21128;50.016;20.002;2023-03-14T03:40:44;97097.10;;;10.32;52.34
34921;BME280;21128;50.016;20.002;2023-03-14T03:43:11;97090.67;;;10.20;52.46
34921;BME280;21128;50.016;20.002;2023-03-14T03:45:38;97080.27;;;10.12;52.98
34921;BME280;21128;50.016;20.002;2023-03-14T03:48:05;97087.41;;;10.03;53.02
34921;BME280;21128;50.016;20.002;2023-03-14T03:50:32;97094.56;;;9.95;53.21
34921;BME280;21128;50.016;20.002;2023-03-14T03:52:59;97091.02;;;9.87;53.40
34921;BME280;21128;50.016;20.002;2023-03-14T03:55:26;97085.15;;;9.85;53.82
34921;BME280;21128;50.016;20.002;2023-03-14T03:57:54;97081.72;;;9.85;53.77
34921;BME280;21128;50.016;20.002;2023-03-14T04:00:21;97084.16;;;9.86;54.09
34921;BME280;21128;50.016;20.002;2023-03-14T04:02:48;97091.39;;;9.84;53.79
34921;BME280;21128;50.016;20.002;2023-03-14T04:05:16;97099.97;;;9.78;54.56
34921;BME280;21128;50.016;20.002;2023-03-14T04:07:43;97115.23;;;9.75;54.23
34921;BME280;21128;50.016;20.002;2023-03-14T04:10:10;97120.33;;;9.76;54.51
34921;BME280;21128;50.016;20.002;2023-03-14T04:12:37;97121.88;;;9.85;54.45
34921;BME280;21128;50.016;20.002;2023-03-14T04:15:05;97108.67;;;9.94;54.56
34921;BME280;21128;50.016;20.002;2023-03-14T04:17:32;97099.00;;;10.09;54.36
34921;BME280;21128;50.016;20.002;2023-03-14T04:19:59;97095.39;;;10.25;54.48
34921;BME280;21128;50.016;20.002;2023-03-14T04:22:26;97083.25;;;10.38;54.32
34921;BME280;21128;50.016;20.002;2023-03-14T04:24:53;97089.64;;;10.51;54.37
34921;BME280;21128;50.016;20.002;2023-03-14T04:27:19;97098.61;;;10.56;54.21
34921;BME280;21128;50.016;20.002;2023-03-14T04:29:46;97112.02;;;10.61;53.85
34921;BME280;21128;50.016;20.002;2023-03-14T04:32:13;97096.25;;;10.61;53.73
34921;BME280;21128;50.016;20.002;2023-03-14T04:34:41;97112.83;;;10.62;54.03
34921;BME280;21128;50.016;20.002;2023-03-14T04:37:08;97116.62;;;10.59;53.83
34921;BME280;21128;50.016;20.002;2023-03-14T04:39:35;97113.17;;;10.59;53.97
34921;BME280;21128;50.016;20.002;2023-03-14T04:42:02;97113.02;;;10.60;53.82
34921;BME280;21128;50.016;20.002;2023-03-14T04:44:29;97118.27;;;10.60;53.92
34921;BME280;21128;50.016;20.002;2023-03-14T04:46:56;97125.96;;;10.62;54.57
34921;BME280;21128;50.016;20.002;2023-03-14T04:49:23;97136.38;;;10.55;53.95
34921;BME280;21128;50.016;20.002;2023-03-14T04:51:50;97128.31;;;10.57;53.82
34921;BME280;21128;50.016;20.002;2023-03-14T04:54:19;97130.84;;;10.50;53.92
34921;BME280;21128;50.016;20.002;2023-03-14T04:56:46;97122.26;;;10.41;54.16
34921;BME280;21128;50.016;20.002;2023-03-14T04:59:13;97126.88;;;10.39;53.99
34921;BME280;21128;50.016;20.002;2023-03-14T05:01:40;97130.51;;;10.38;54.31
34921;BME280;21128;50.016;20.002;2023-03-14T05:04:07;97143.64;;;10.38;54.19
34921;BME280;21128;50.016;20.002;2023-03-14T05:06:34;97141.45;;;10.42;54.26
34921;BME280;21128;50.016;20.002;2023-03-14T05:09:01;97150.98;;;10.43;54.37
34921;BME280;21128;50.016;20.002;2023-03-14T05:11:28;97143.73;;;10.45;54.33
34921;BME280;21128;50.016;20.002;2023-03-14T05:13:56;97134.41;;;10.42;54.53
34921;BME280;21128;50.016;20.002;2023-03-14T05:16:23;97139.11;;;10.32;54.44
34921;BME280;21128;50.016;20.002;2023-03-14T05:18:50;97140.66;;;10.27;54.69
34921;BME280;21128;50.016;20.002;2023-03-14T05:21:17;97150.22;;;10.20;54.34
34921;BME280;21128;50.016;20.002;2023-03-14T05:23:44;97146.06;;;10.10;54.91
34921;BME280;21128;50.016;20.002;2023-03-14T05:26:11;97145.33;;;10.02;54.92
34921;BME280;21128;50.016;20.002;2023-03-14T05:28:38;97138.53;;;9.93;55.29
34921;BME280;21128;50.016;20.002;2023-03-14T05:31:08;97122.69;;;9.86;55.29
34921;BME280;21128;50.016;20.002;2023-03-14T05:33:35;97115.97;;;9.83;55.32
34921;BME280;21128;50.016;20.002;2023-03-14T05:36:03;97118.44;;;9.85;55.51
34921;BME280;21128;50.016;20.002;2023-03-14T05:38:30;97110.39;;;9.86;55.26
34921;BME280;21128;50.016;20.002;2023-03-14T05:40:57;97106.39;;;9.91;55.59
34921;BME280;21128;50.016;20.002;2023-03-14T05:43:23;97107.68;;;9.95;55.87
34921;BME280;21128;50.016;20.002;2023-03-14T05:45:50;97108.94;;;9.99;55.36
34921;BME280;21128;50.016;20.002;2023-03-14T05:48:17;97103.16;;;10.03;55.79
34921;BME280;21128;50.016;20.002;2023-03-14T05:50:45;97086.70;;;10.09;55.72
34921;BME280;21128;50.016;20.002;2023-03-14T05:53:12;97090.57;;;10.13;55.60
34921;BME280;21128;50.016;20.002;2023-03-14T05:55:39;97103.79;;;10.20;56.04
34921;BME280;21128;50.016;20.002;2023-03-14T05:58:07;97104.35;;;10.30;55.62
34921;BME280;21128;50.016;20.002;2023-03-14T06:00:34;97095.84;;;10.43;55.77
34921;BME280;21128;50.016;20.002;2023-03-14T06:03:00;97086.20;;;10.50;55.65
34921;BME280;21128;50.016;20.002;2023-03-14T06:05:27;97081.03;;;10.57;55.18
34921;BME280;21128;50.016;20.002;2023-03-14T06:07:54;97084.75;;;10.62;55.46
34921;BME280;21128;50.016;20.002;2023-03-14T06:10:21;97090.44;;;10.66;55.91
34921;BME280;21128;50.016;20.002;2023-03-14T06:12:48;97091.09;;;10.68;55.67
34921;BME280;21128;50.016;20.002;2023-03-14T06:15:15;97086.07;;;10.73;55.95
34921;BME280;21128;50.016;20.002;2023-03-14T06:17:42;97097.66;;;10.79;55.63
34921;BME280;21128;50.016;20.002;2023-03-14T06:20:10;97086.77;;;10.82;55.82
34921;BME280;21128;50.016;20.002;2023-03-14T06:22:37;97089.66;;;10.87;55.69
34921;BME280;21128;50.016;20.002;2023-03-14T06:25:06;97082.67;;;10.94;55.67
34921;BME280;21128;50.016;20.002;2023-03-14T06:27:33;97089.23;;;11.05;55.73
34921;BME280;21128;50.016;20.002;2023-03-14T06:30:00;97083.86;;;11.13;55.54
34921;BME280;21128;50.016;20.002;2023-03-14T06:32:27;97088.37;;;11.19;55.93
34921;BME280;21128;50.016;20.002;2023-03-14T06:34:54;97091.42;;;11.22;55.36
34921;BME280;21128;50.016;20.002;2023-03-14T06:37:21;97079.97;;;11.30;55.93
34921;BME280;21128;50.016;20.002;2023-03-14T06:39:48;97072.75;;;11.39;55.73
34921;BME280;21128;50.016;20.002;2023-03-14T06:42:15;97061.48;;;11.45;55.57
34921;BME280;21128;50.016;20.002;2023-03-14T06:44:42;97056.25;;;11.51;55.71
34921;BME280;21128;50.016;20.002;2023-03-14T06:47:09;97055.02;;;11.47;55.98
34921;BME280;21128;50.016;20.002;2023-03-14T06:49:36;97058.40;;;11.41;55.65
34921;BME280;21128;50.016;20.002;2023-03-14T06:52:03;97049.34;;;11.44;55.90
34921;BME280;21128;50.016;20.002;2023-03-14T06:54:30;97055.22;;;11.46;55.74
34921;BME280;21128;50.016;20.002;2023-03-14T06:56:57;97046.06;;;11.42;55.86
34921;BME280;21128;50.016;20.002;2023-03-14T06:59:24;97033.73;;;11.42;56.04
34921;BME280;21128;50.016;20.002;2023-03-14T07:01:51;97038.67;;;11.52;56.31
34921;BME280;21128;50.016;20.002;2023-03-14T07:04:18;97033.34;;;11.73;56.22
34921;BME280;21128;50.016;20.002;2023-03-14T07:06:45;97034.73;;;11.97;55.83
34921;BME280;21128;50.016;20.002;2023-03-14T07:09:14;97031.03;;;12.33;54.87
34921;BME280;21128;50.016;20.002;2023-03-14T07:11:41;97028.11;;;12.76;53.65
34921;BME280;21128;50.016;20.002;2023-03-14T07:14:08;97022.08;;;13.08;52.60
34921;BME280;21128;50.016;20.002;2023-03-14T07:16:35;97023.55;;;13.31;51.50
34921;BME280;21128;50.016;20.002;2023-03-14T07:19:02;97037.34;;;13.46;51.23
34921;BME280;21128;50.016;20.002;2023-03-14T07:21:30;97020.08;;;13.57;51.00
34921;BME280;21128;50.016;20.002;2023-03-14T07:23:58;97019.05;;;13.64;49.87
34921;BME280;21128;50.016;20.002;2023-03-14T07:26:25;97022.50;;;13.71;50.30
34921;BME280;21128;50.016;20.002;2023-03-14T07:28:52;97028.16;;;13.82;50.42
34921;BME280;21128;50.016;20.002;2023-03-14T07:31:19;97016.35;;;13.91;49.96
34921;BME280;21128;50.016;20.002;2023-03-14T07:33:46;97017.15;;;13.98;49.59
34921;BME280;21128;50.016;20.002;2023-03-14T07:36:13;97015.90;;;14.07;49.46
34921;BME280;21128;50.016;20.002;2023-03-14T07:38:40;97007.53;;;14.17;49.36
34921;BME280;21128;50.016;20.002;2023-03-14T07:41:07;97003.41;;;14.27;49.30
34921;BME280;21128;50.016;20.002;2023-03-14T07:43:34;96996.70;;;14.31;48.63
34921;BME280;21128;50.016;20.002;2023-03-14T07:46:01;97005.03;;;14.28;48.10
34921;BME280;21128;50.016;20.002;2023-03-14T07:48:28;97005.67;;;14.24;48.48
34921;BME280;21128;50.016;20.002;2023-03-14T07:50:55;96996.13;;;14.23;49.00
34921;BME280;21128;50.016;20.002;2023-03-14T07:53:24;97006.48;;;14.24;48.88
34921;BME280;21128;50.016;20.002;2023-03-14T07:55:52;97011.34;;;14.27;49.19
34921;BME280;21128;50.016;20.002;2023-03-14T07:58:21;97016.01;;;14.32;48.61
34921;BME280;21128;50.016;20.002;2023-03-14T08:00:51;97025.93;;;14.36;48.92
34921;BME280;21128;50.016;20.002;2023-03-14T08:03:18;97028.77;;;14.42;48.48
34921;BME280;21128;50.016;20.002;2023-03-14T08:05:51;97027.31;;;14.52;48.75
34921;BME280;21128;50.016;20.002;2023-03-14T08:08:19;97034.94;;;14.74;48.60
34921;BME280;21128;50.016;20.002;2023-03-14T08:10:46;97027.72;;;14.87;48.51
34921;BME280;21128;50.016;20.002;2023-03-14T08:13:13;97046.60;;;14.98;48.42
34921;BME280;21128;50.016;20.002;2023-03-14T08:15:41;97041.24;;;15.04;47.91
34921;BME280;21128;50.016;20.002;2023-03-14T08:18:08;97044.70;;;15.05;48.13
34921;BME280;21128;50.016;20.002;2023-03-14T08:20:35;97026.58;;;15.08;47.69
34921;BME280;21128;50.016;20.002;2023-03-14T08:23:02;97030.41;;;15.12;47.90
34921;BME280;21128;50.016;20.002;2023-03-14T08:25:30;97030.63;;;15.11;47.70
34921;BME280;21128;50.016;20.002;2023-03-14T08:27:57;97042.02;;;15.11;47.95
34921;BME280;21128;50.016;20.002;2023-03-14T08:30:24;97043.44;;;15.14;48.31
34921;BME280;21128;50.016;20.002;2023-03-14T08:32:51;97038.16;;;15.14;47.93
34921;BME280;21128;50.016;20.002;2023-03-14T08:35:18;97045.87;;;15.15;47.63
34921;BME280;21128;50.016;20.002;2023-03-14T08:37:46;97033.99;;;15.25;47.74
34921;BME280;21128;50.016;20.002;2023-03-14T08:40:14;97026.69;;;15.45;47.77
34921;BME280;21128;50.016;20.002;2023-03-14T08:42:42;97023.99;;;15.52;47.31
34921;BME280;21128;50.016;20.002;2023-03-14T08:45:12;97024.97;;;15.57;47.43
34921;BME280;21128;50.016;20.002;2023-03-14T08:47:40;97025.75;;;15.64;47.02
34921;BME280;21128;50.016;20.002;2023-03-14T08:50:08;97029.63;;;15.62;46.58
34921;BME280;21128;50.016;20.002;2023-03-14T08:52:35;97030.27;;;15.57;47.04
34921;BME280;21128;50.016;20.002;2023-03-14T08:55:05;97023.99;;;15.52;46.32
34921;BME280;21128;50.016;20.002;2023-03-14T08:57:32;97022.38;;;15.51;47.02
34921;BME280;21128;50.016;20.002;2023-03-14T08:59:59;97030.54;;;15.49;46.55
34921;BME280;21128;50.016;20.002;2023-03-14T09:02:26;97032.52;;;15.54;47.06
34921;BME280;21128;50.016;20.002;2023-03-14T09:04:54;97033.41;;;15.47;45.62
34921;BME280;21128;50.016;20.002;2023-03-14T09:07:20;97051.98;;;15.41;45.95
34921;BME280;21128;50.016;20.002;2023-03-14T09:09:47;97051.98;;;15.41;46.26
34921;BME280;21128;50.016;20.002;2023-03-14T09:12:15;97059.75;;;15.36;46.16
34921;BME280;21128;50.016;20.002;2023-03-14T09:14:42;97066.11;;;15.28;45.73
34921;BME280;21128;50.016;20.002;2023-03-14T09:17:09;97067.31;;;15.32;46.16
34921;BME280;21128;50.016;20.002;2023-03-14T09:19:35;97049.20;;;15.29;45.79
34921;BME280;21128;50.016;20.002;2023-03-14T09:22:02;97053.14;;;15.20;45.38
34921;BME280;21128;50.016;20.002;2023-03-14T09:24:30;97029.81;;;15.10;45.31
34921;BME280;21128;50.016;20.002;2023-03-14T09:26:57;97044.55;;;15.00;45.15
34921;BME280;21128;50.016;20.002;2023-03-14T09:29:24;97049.62;;;15.01;45.75
34921;BME280;21128;50.016;20.002;2023-03-14T09:31:52;97063.39;;;15.10;46.21
34921;BME280;21128;50.016;20.002;2023-03-14T09:34:19;97077.61;;;15.15;45.41
34921;BME280;21128;50.016;20.002;2023-03-14T09:36:46;97066.04;;;15.10;45.65
34921;BME280;21128;50.016;20.002;2023-03-14T09:39:13;97064.97;;;15.17;46.13
34921;BME280;21128;50.016;20.002;2023-03-14T09:41:43;97065.34;;;15.21;45.88
34921;BME280;21128;50.016;20.002;2023-03-14T09:44:21;97073.23;;;15.28;45.00
34921;BME280;21128;50.016;20.002;2023-03-14T09:46:51;97078.16;;;15.24;44.92
34921;BME280;21128;50.016;20.002;2023-03-14T09:49:39;97076.88;;;15.33;45.03
34921;BME280;21128;50.016;20.002;2023-03-14T09:52:24;97072.34;;;15.40;45.24
34921;BME280;21128;50.016;20.002;2023-03-14T09:55:09;97083.16;;;15.39;44.87
34921;BME280;21128;50.016;20.002;2023-03-14T09:57:39;97084.63;;;15.28;44.39
34921;BME280;21128;50.016;20.002;2023-03-14T10:00:21;97077.69;;;15.34;44.94
34921;BME280;21128;50.016;20.002;2023-03-14T10:05:41;97092.26;;;15.74;44.54
34921;BME280;21128;50.016;20.002;2023-03-14T10:08:12;97086.47;;;15.84;43.71
34921;BME280;21128;50.016;20.002;2023-03-14T10:10:40;97107.96;;;15.94;44.33
34921;BME280;21128;50.016;20.002;2023-03-14T10:13:19;97099.89;;;16.08;43.96
34921;BME280;21128;50.016;20.002;2023-03-14T10:18:20;97112.86;;;16.52;42.64
34921;BME280;21128;50.016;20.002;2023-03-14T10:20:49;97105.95;;;16.70;42.30
34921;BME280;21128;50.016;20.002;2023-03-14T10:23:30;97098.88;;;16.82;41.35
34921;BME280;21128;50.016;20.002;2023-03-14T10:28:32;97097.22;;;16.99;42.18
34921;BME280;21128;50.016;20.002;2023-03-14T10:31:00;97109.25;;;17.13;41.13
34921;BME280;21128;50.016;20.002;2023-03-14T10:33:33;97104.23;;;17.24;42.26
34921;BME280;21128;50.016;20.002;2023-03-14T10:36:19;97108.75;;;17.35;41.87
34921;BME280;21128;50.016;20.002;2023-03-14T10:38:48;97106.91;;;17.35;42.20
34921;BME280;21128;50.016;20.002;2023-03-14T10:41:26;97110.55;;;17.23;41.01
34921;BME280;21128;50.016;20.002;2023-03-14T10:43:57;97107.95;;;17.04;41.78
34921;BME280;21128;50.016;20.002;2023-03-14T10:46:27;97101.23;;;16.90;42.70
34921;BME280;21128;50.016;20.002;2023-03-14T10:48:56;97108.66;;;16.81;42.98
34921;BME280;21128;50.016;20.002;2023-03-14T10:51:29;97139.02;;;16.67;42.60
34921;BME280;21128;50.016;20.002;2023-03-14T10:54:00;97111.25;;;16.33;42.15
34921;BME280;21128;50.016;20.002;2023-03-14T10:56:35;97109.98;;;16.17;43.59
34921;BME280;21128;50.016;20.002;2023-03-14T10:59:06;97105.33;;;16.13;43.41
34921;BME280;21128;50.016;20.002;2023-03-14T11:01:38;97089.30;;;16.08;44.23
34921;BME280;21128;50.016;20.002;2023-03-14T11:07:08;97093.62;;;16.02;43.62
34921;BME280;21128;50.016;20.002;2023-03-14T11:10:24;97092.01;;;16.01;44.30
34921;BME280;21128;50.016;20.002;2023-03-14T11:12:59;97084.70;;;15.96;44.20
34921;BME280;21128;50.016;20.002;2023-03-14T11:21:09;97085.12;;;15.75;45.70
34921;BME280;21128;50.016;20.002;2023-03-14T11:26:36;97091.45;;;15.74;45.53
34921;BME280;21128;50.016;20.002;2023-03-14T11:31:48;97066.19;;;15.71;45.60
34921;BME280;21128;50.016;20.002;2023-03-14T11:34:33;97066.47;;;15.63;46.23
34921;BME280;21128;50.016;20.002;2023-03-14T11:37:11;97072.00;;;15.55;46.40
34921;BME280;21128;50.016;20.002;2023-03-14T11:39:45;97063.70;;;15.52;46.80
34921;BME280;21128;50.016;20.002;2023-03-14T11:42:17;97063.70;;;15.52;47.01
34921;BME280;21128;50.016;20.002;2023-03-14T11:44:48;97069.58;;;15.54;46.91
34921;BME280;21128;50.016;20.002;2023-03-14T11:47:32;97071.27;;;15.48;47.05
34921;BME280;21128;50.016;20.002;2023-03-14T11:50:16;97057.81;;;15.49;47.23
34921;BME280;21128;50.016;20.002;2023-03-14T11:58:09;97067.89;;;15.66;47.01
34921;BME280;21128;50.016;20.002;2023-03-14T12:00:38;97059.78;;;15.61;47.06
34921;BME280;21128;50.016;20.002;2023-03-14T12:03:28;97073.25;;;15.53;47.23
34921;BME280;21128;50.016;20.002;2023-03-14T12:09:12;97064.02;;;15.37;47.18
34921;BME280;21128;50.016;20.002;2023-03-14T12:14:37;97073.90;;;15.23;46.87
34921;BME280;21128;50.016;20.002;2023-03-14T12:17:43;97061.70;;;15.22;47.55
34921;BME280;21128;50.016;20.002;2023-03-14T12:20:20;97052.55;;;15.18;47.21
34921;BME280;21128;50.016;20.002;2023-03-14T12:23:17;97047.48;;;15.16;47.18
34921;BME280;21128;50.016;20.002;2023-03-14T12:25:44;97045.28;;;15.13;47.12
34921;BME280;21128;50.016;20.002;2023-03-14T12:28:30;97044.03;;;15.16;47.40
34921;BME280;21128;50.016;20.002;2023-03-14T12:31:35;97037.49;;;15.18;47.22
34921;BME280;21128;50.016;20.002;2023-03-14T12:36:48;97008.30;;;15.32;47.33
34921;BME280;21128;50.016;20.002;2023-03-14T12:39:39;97023.77;;;15.28;47.20
34921;BME280;21128;50.016;20.002;2023-03-14T12:42:21;97020.55;;;15.26;47.17
34921;BME280;21128;50.016;20.002;2023-03-14T12:44:50;97022.20;;;15.20;47.04
34921;BME280;21128;50.016;20.002;2023-03-14T12:49:49;97022.06;;;15.15;46.93
34921;BME280;21128;50.016;20.002;2023-03-14T12:52:20;97024.16;;;15.07;47.30
34921;BME280;21128;50.016;20.002;2023-03-14T12:57:29;97019.53;;;14.96;47.62
34921;BME280;21128;50.016;20.002;2023-03-14T13:00:00;97021.00;;;14.91;47.90
34921;BME280;21128;50.016;20.002;2023-03-14T13:02:44;97024.08;;;14.88;47.76
34921;BME280;21128;50.016;20.002;2023-03-14T13:05:22;97022.50;;;14.81;47.95
34921;BME280;21128;50.016;20.002;2023-03-14T13:10:24;97034.97;;;14.67;48.37
34921;BME280;21128;50.016;20.002;2023-03-14T13:13:23;97035.59;;;14.62;48.79
34921;BME280;21128;50.016;20.002;2023-03-14T13:15:57;97039.10;;;14.56;48.85
34921;BME280;21128;50.016;20.002;2023-03-14T13:18:32;97050.29;;;14.52;49.04
34921;BME280;21128;50.016;20.002;2023-03-14T13:21:21;97050.13;;;14.47;49.40
34921;BME280;21128;50.016;20.002;2023-03-14T13:26:43;97041.39;;;14.40;50.16
34921;BME280;21128;50.016;20.002;2023-03-14T13:31:49;97050.73;;;14.35;50.75
34921;BME280;21128;50.016;20.002;2023-03-14T13:34:17;97062.54;;;14.33;50.75
34921;BME280;21128;50.016;20.002;2023-03-14T13:36:44;97063.16;;;14.28;51.05
34921;BME280;21128;50.016;20.002;2023-03-14T13:39:20;97067.24;;;14.24;51.59
34921;BME280;21128;50.016;20.002;2023-03-14T13:41:52;97062.39;;;14.21;51.59
34921;BME280;21128;50.016;20.002;2023-03-14T13:44:38;97068.88;;;14.19;51.61
34921;BME280;21128;50.016;20.002;2023-03-14T13:47:18;97076.20;;;14.17;52.21
34921;BME280;21128;50.016;20.002;2023-03-14T13:49:46;97081.50;;;14.10;52.08
34921;BME280;21128;50.016;20.002;2023-03-14T13:52:32;97081.33;;;14.05;52.42
34921;BME280;21128;50.016;20.002;2023-03-14T13:55:03;97088.23;;;13.99;52.78
34921;BME280;21128;50.016;20.002;2023-03-14T13:57:53;97090.48;;;13.96;52.63
34921;BME280;21128;50.016;20.002;2023-03-14T14:00:25;97090.28;;;13.91;52.97